Time;durP1;ratioP1;P1;durP2;ratioP2;P2;SDS_P1;SDS_P2;PMS_P1;PMS_P2;Temp;Humidity;BMP_temperature;BMP_pressure;BME280_temperature;BME280_humidity;BME280_pressure;Samples;Min_cycle;Max_cycle;Signal;HPM_P1;HPM_P2
2021/01/15 00:01:36;;;;;;;1.80;1.70;;;0.10;98.20;;;;;;6160357;23;20617;-75
2021/01/15 00:04:03;;;;;;;1.70;1.53;;;0.10;98.20;;;;;;6169875;23;20483;-75
2021/01/15 00:06:30;;;;;;;1.70;1.60;;;0.00;98.20;;;;;;6158865;23;20475;-76
2021/01/15 00:08:57;;;;;;;1.80;1.70;;;0.00;98.20;;;;;;6157994;23;20962;-75
2021/01/15 00:11:24;;;;;;;1.70;1.60;;;0.00;98.20;;;;;;6157191;23;20436;-77
2021/01/15 00:13:53;;;;;;;1.70;1.60;;;0.00;98.20;;;;;;6157651;23;20429;-77
2021/01/15 00:16:21;;;;;;;1.70;1.60;;;-0.10;98.20;;;;;;6158380;23;20918;-76
2021/01/15 00:18:48;;;;;;;1.80;1.70;;;-0.10;98.20;;;;;;6156695;23;20505;-77
2021/01/15 00:21:19;;;;;;;1.80;1.70;;;-0.20;98.20;;;;;;6155708;23;20483;-75
2021/01/15 00:23:46;;;;;;;1.80;1.70;;;-0.20;98.20;;;;;;6156227;23;20500;-76
2021/01/15 00:26:16;;;;;;;1.80;1.70;;;-0.20;98.20;;;;;;6156091;23;20444;-77
2021/01/15 00:28:43;;;;;;;1.80;1.70;;;-0.30;98.20;;;;;;6154408;23;20440;-76
2021/01/15 00:31:10;;;;;;;1.70;1.60;;;-0.30;98.20;;;;;;6153980;23;20424;-75
2021/01/15 00:33:37;;;;;;;1.70;1.60;;;-0.40;98.20;;;;;;6155235;23;20425;-76
2021/01/15 00:36:04;;;;;;;1.70;1.60;;;-0.40;98.20;;;;;;6154591;23;20433;-75
2021/01/15 00:38:30;;;;;;;1.80;1.70;;;-0.50;98.20;;;;;;6154712;23;20449;-76
2021/01/15 00:40:58;;;;;;;1.80;1.70;;;-0.50;98.20;;;;;;6153351;23;20428;-75
2021/01/15 00:43:25;;;;;;;1.90;1.80;;;-0.60;98.20;;;;;;6155114;23;20448;-75
2021/01/15 00:45:51;;;;;;;1.80;1.70;;;-0.60;98.20;;;;;;6155609;23;20425;-77
2021/01/15 00:48:19;;;;;;;1.70;1.60;;;-0.70;98.20;;;;;;6154560;23;20437;-77
2021/01/15 00:50:46;;;;;;;1.70;1.60;;;-0.70;98.20;;;;;;6154055;23;20424;-77
2021/01/15 00:53:12;;;;;;;1.73;1.63;;;-0.80;98.20;;;;;;6153661;23;20421;-76
2021/01/15 00:55:39;;;;;;;1.70;1.60;;;-0.80;98.20;;;;;;6155483;23;20426;-76
2021/01/15 00:58:05;;;;;;;1.80;1.70;;;-0.90;98.20;;;;;;6154596;23;20456;-76
2021/01/15 01:00:32;;;;;;;1.80;1.70;;;-0.90;98.20;;;;;;6154619;23;20425;-77
2021/01/15 01:02:58;;;;;;;1.80;1.70;;;-1.00;98.20;;;;;;6155684;23;20421;-74
2021/01/15 01:05:26;;;;;;;1.80;1.70;;;-1.00;98.20;;;;;;6152451;23;20425;-76
2021/01/15 01:07:54;;;;;;;1.80;1.70;;;-1.00;98.20;;;;;;6153866;23;20422;-76
2021/01/15 01:10:21;;;;;;;1.93;1.80;;;-1.10;98.20;;;;;;6153465;23;20426;-76
2021/01/15 01:12:48;;;;;;;1.80;1.70;;;-1.10;98.20;;;;;;6154963;23;20464;-77
2021/01/15 01:15:15;;;;;;;2.00;1.80;;;-1.10;98.20;;;;;;6154138;23;20449;-76
2021/01/15 01:17:42;;;;;;;2.00;1.80;;;-1.10;98.20;;;;;;6154810;23;20596;-77
2021/01/15 01:20:11;;;;;;;1.97;1.77;;;-1.20;98.20;;;;;;6153884;23;20433;-79
2021/01/15 01:22:39;;;;;;;1.90;1.80;;;-1.20;98.20;;;;;;6154589;23;20450;-76
2021/01/15 01:25:07;;;;;;;1.80;1.70;;;-1.20;98.20;;;;;;6152833;23;20421;-77
2021/01/15 01:27:34;;;;;;;1.80;1.70;;;-1.20;98.20;;;;;;6155756;23;20440;-77
2021/01/15 01:30:00;;;;;;;1.80;1.70;;;-1.20;98.20;;;;;;6154761;23;20762;-77
2021/01/15 01:32:27;;;;;;;1.90;1.80;;;-1.30;98.20;;;;;;6164703;23;20922;-76
2021/01/15 01:34:53;;;;;;;1.97;1.80;;;-1.30;98.20;;;;;;6155040;23;20421;-75
2021/01/15 01:37:19;;;;;;;1.90;1.80;;;-1.30;98.20;;;;;;6156018;23;20440;-77
2021/01/15 01:39:47;;;;;;;2.00;1.80;;;-1.40;98.20;;;;;;6155220;23;20468;-75
2021/01/15 01:42:13;;;;;;;1.90;1.80;;;-1.40;98.20;;;;;;6164752;23;20413;-77
2021/01/15 01:44:40;;;;;;;1.93;1.80;;;-1.40;98.20;;;;;;6155685;23;20421;-77
2021/01/15 01:47:07;;;;;;;2.00;1.83;;;-1.40;98.20;;;;;;6153827;23;20463;-75
2021/01/15 01:49:34;;;;;;;2.03;1.83;;;-1.40;98.20;;;;;;6155002;23;20464;-76
2021/01/15 01:52:04;;;;;;;2.00;1.80;;;-1.40;98.20;;;;;;6151938;23;20429;-76
2021/01/15 01:54:34;;;;;;;1.90;1.80;;;-1.40;98.20;;;;;;6153932;23;20409;-76
2021/01/15 01:57:03;;;;;;;1.87;1.73;;;-1.40;98.20;;;;;;6153945;23;20444;-75
2021/01/15 01:59:30;;;;;;;1.87;1.77;;;-1.40;98.20;;;;;;6155684;23;20437;-76
2021/01/15 02:01:56;;;;;;;1.90;1.80;;;-1.40;98.20;;;;;;6153635;23;20751;-74
2021/01/15 02:04:23;;;;;;;2.00;1.80;;;-1.40;98.20;;;;;;6156336;23;20433;-76
2021/01/15 02:06:50;;;;;;;1.70;1.60;;;-1.30;98.20;;;;;;6155334;23;20425;-75
2021/01/15 02:09:23;;;;;;;1.90;1.80;;;-1.30;98.20;;;;;;6155890;23;20449;-75
2021/01/15 02:12:02;;;;;;;2.20;2.00;;;-1.20;98.20;;;;;;6155676;23;20762;-75
2021/01/15 02:14:40;;;;;;;1.80;1.70;;;-1.20;98.20;;;;;;6157006;23;20444;-74
2021/01/15 02:17:14;;;;;;;2.00;1.80;;;-1.10;98.20;;;;;;6155575;23;20436;-75
2021/01/15 02:20:02;;;;;;;1.90;1.80;;;-1.00;98.20;;;;;;6155036;23;20445;-78
2021/01/15 02:22:54;;;;;;;1.97;1.80;;;-1.00;98.20;;;;;;6156206;23;20406;-76
2021/01/15 02:25:57;;;;;;;1.83;1.70;;;-0.90;98.20;;;;;;6151739;23;21037;-76
2021/01/15 02:28:56;;;;;;;1.80;1.70;;;-0.90;98.20;;;;;;6155471;23;20433;-75
2021/01/15 02:31:49;;;;;;;1.70;1.60;;;-0.80;98.20;;;;;;6156986;23;20708;-77
2021/01/15 02:34:29;;;;;;;1.80;1.70;;;-0.80;98.20;;;;;;6157578;23;20645;-75
2021/01/15 02:37:02;;;;;;;2.00;1.80;;;-0.70;98.20;;;;;;6156099;23;20464;-74
2021/01/15 02:39:49;;;;;;;1.80;1.70;;;-0.60;98.20;;;;;;6157738;23;20561;-76
2021/01/15 02:42:17;;;;;;;2.10;1.90;;;-0.60;98.20;;;;;;6156496;23;20416;-76
2021/01/15 02:44:50;;;;;;;1.70;1.60;;;-0.60;98.20;;;;;;6152105;23;20427;-76
2021/01/15 02:47:22;;;;;;;1.77;1.67;;;-0.50;98.20;;;;;;6144376;23;20895;-76
2021/01/15 02:49:50;;;;;;;1.80;1.70;;;-0.50;98.20;;;;;;6149297;23;21029;-76
2021/01/15 02:52:18;;;;;;;1.70;1.60;;;-0.50;98.20;;;;;;6154431;23;20424;-75
2021/01/15 02:54:44;;;;;;;1.90;1.80;;;-0.40;98.20;;;;;;6159346;23;20471;-76
2021/01/15 02:57:10;;;;;;;2.00;1.80;;;-0.40;98.20;;;;;;6160051;23;20441;-76
2021/01/15 02:59:37;;;;;;;1.70;1.60;;;-0.40;98.20;;;;;;6159208;23;20446;-75
2021/01/15 03:02:12;;;;;;;1.90;1.80;;;-0.30;98.20;;;;;;6170218;23;20417;-75
2021/01/15 03:04:51;;;;;;;1.70;1.60;;;-0.30;98.20;;;;;;6160436;23;20412;-75
2021/01/15 03:07:22;;;;;;;1.70;1.60;;;-0.30;98.20;;;;;;6159773;23;20442;-75
2021/01/15 03:09:50;;;;;;;1.70;1.60;;;-0.20;98.20;;;;;;6160572;23;20447;-76
2021/01/15 03:12:19;;;;;;;1.80;1.70;;;-0.20;98.20;;;;;;6160566;23;20432;-75
2021/01/15 03:14:47;;;;;;;1.83;1.73;;;-0.20;98.20;;;;;;6160759;23;20421;-76
2021/01/15 03:17:14;;;;;;;1.80;1.70;;;-0.10;98.20;;;;;;6160397;23;20456;-76
2021/01/15 03:19:42;;;;;;;2.10;1.90;;;-0.10;98.20;;;;;;6159905;23;20437;-76
2021/01/15 03:22:15;;;;;;;1.70;1.60;;;-0.10;98.20;;;;;;6160253;23;20429;-76
2021/01/15 03:24:52;;;;;;;1.70;1.60;;;0.00;98.20;;;;;;6162448;23;20424;-75
2021/01/15 03:27:19;;;;;;;1.70;1.60;;;0.00;98.20;;;;;;6161040;23;20408;-77
2021/01/15 03:29:45;;;;;;;1.70;1.60;;;0.10;98.20;;;;;;6160078;23;20443;-76
2021/01/15 03:32:12;;;;;;;1.70;1.60;;;0.10;98.20;;;;;;6157232;23;20425;-76
2021/01/15 03:34:38;;;;;;;1.90;1.80;;;0.20;98.20;;;;;;6159563;23;20693;-76
2021/01/15 03:37:05;;;;;;;1.80;1.70;;;0.20;98.20;;;;;;6159854;23;20441;-75
2021/01/15 03:39:32;;;;;;;1.70;1.57;;;0.30;98.20;;;;;;6158756;23;20448;-77
2021/01/15 03:41:59;;;;;;;1.70;1.60;;;0.30;98.20;;;;;;6157354;23;20788;-76
2021/01/15 03:44:26;;;;;;;1.70;1.60;;;0.40;98.20;;;;;;6158402;23;20420;-77
2021/01/15 03:46:53;;;;;;;1.70;1.60;;;0.40;98.20;;;;;;6158096;23;20784;-77
2021/01/15 03:49:20;;;;;;;2.00;1.80;;;0.40;98.20;;;;;;6167738;23;20438;-78
2021/01/15 03:51:47;;;;;;;1.70;1.60;;;0.50;98.20;;;;;;6156416;23;20422;-75
2021/01/15 03:54:13;;;;;;;1.80;1.70;;;0.50;98.20;;;;;;6156782;23;20426;-78
2021/01/15 03:56:40;;;;;;;1.80;1.70;;;0.50;98.20;;;;;;6158866;23;20432;-76
2021/01/15 03:59:07;;;;;;;1.70;1.60;;;0.50;98.20;;;;;;6158419;23;20468;-77
2021/01/15 04:01:36;;;;;;;1.70;1.60;;;0.60;98.20;;;;;;6158854;23;20425;-78
2021/01/15 04:04:02;;;;;;;1.80;1.70;;;0.60;98.20;;;;;;6158048;23;20457;-77
2021/01/15 04:06:29;;;;;;;1.70;1.60;;;0.70;98.20;;;;;;6158927;23;20520;-77
2021/01/15 04:08:55;;;;;;;1.80;1.70;;;0.70;98.20;;;;;;6157129;23;20437;-77
2021/01/15 04:11:22;;;;;;;1.70;1.60;;;0.70;98.20;;;;;;6169047;23;20436;-76
2021/01/15 04:13:48;;;;;;;1.67;1.50;;;0.70;98.20;;;;;;6157707;23;20938;-77
2021/01/15 04:16:16;;;;;;;1.70;1.60;;;0.70;98.20;;;;;;6157019;23;20421;-76
2021/01/15 04:18:43;;;;;;;1.70;1.60;;;0.80;98.20;;;;;;6158966;23;20449;-77
2021/01/15 04:21:14;;;;;;;1.70;1.60;;;0.80;98.20;;;;;;6157284;23;20428;-77
2021/01/15 04:23:40;;;;;;;2.63;2.43;;;0.80;98.20;;;;;;6166933;23;20409;-77
2021/01/15 04:26:07;;;;;;;1.70;1.60;;;0.80;98.20;;;;;;6158322;23;20508;-77
2021/01/15 04:28:35;;;;;;;1.70;1.60;;;0.80;98.20;;;;;;6156090;23;20436;-77
2021/01/15 04:31:02;;;;;;;1.70;1.60;;;0.80;98.20;;;;;;6156562;23;20420;-78
2021/01/15 04:33:34;;;;;;;1.70;1.50;;;0.80;98.20;;;;;;6156862;23;20917;-78
2021/01/15 04:36:00;;;;;;;1.70;1.60;;;0.90;98.20;;;;;;6157007;23;20432;-77
2021/01/15 04:38:26;;;;;;;1.70;1.60;;;0.90;98.20;;;;;;6167783;23;21152;-78
2021/01/15 04:40:57;;;;;;;1.70;1.60;;;0.90;98.20;;;;;;6166390;23;20425;-78
2021/01/15 04:43:27;;;;;;;1.70;1.60;;;0.90;98.20;;;;;;6158892;23;20402;-76
2021/01/15 04:45:55;;;;;;;1.70;1.60;;;0.90;98.20;;;;;;6159135;23;20436;-77
2021/01/15 04:48:23;;;;;;;1.67;1.50;;;0.90;98.20;;;;;;6155156;23;20966;-74
2021/01/15 04:50:51;;;;;;;1.80;1.70;;;1.00;98.20;;;;;;6154147;23;20426;-75
2021/01/15 04:53:21;;;;;;;1.80;1.70;;;1.00;98.20;;;;;;6157378;23;20421;-76
2021/01/15 04:55:49;;;;;;;1.80;1.70;;;1.00;98.20;;;;;;6156790;23;20489;-76
2021/01/15 04:58:16;;;;;;;1.70;1.60;;;1.00;98.20;;;;;;6152517;23;20476;-77
2021/01/15 05:00:46;;;;;;;1.73;1.63;;;1.00;98.20;;;;;;6154916;23;20997;-76
2021/01/15 05:03:15;;;;;;;1.70;1.60;;;1.00;98.20;;;;;;6155565;23;20436;-76
2021/01/15 05:05:44;;;;;;;1.70;1.50;;;1.10;98.20;;;;;;6155165;23;20425;-77
2021/01/15 05:08:13;;;;;;;1.70;1.47;;;1.10;98.20;;;;;;6155416;23;20641;-76
2021/01/15 05:10:41;;;;;;;1.73;1.63;;;1.10;98.20;;;;;;6155785;23;20421;-77
2021/01/15 05:13:10;;;;;;;1.70;1.60;;;1.10;98.20;;;;;;6156005;23;20930;-77
2021/01/15 05:15:38;;;;;;;1.77;1.67;;;1.10;98.20;;;;;;6156723;23;20431;-78
2021/01/15 05:18:06;;;;;;;1.70;1.50;;;1.20;98.20;;;;;;6154557;23;20460;-77
2021/01/15 05:20:33;;;;;;;1.63;1.50;;;1.20;98.20;;;;;;6154916;23;20425;-78
2021/01/15 05:23:04;;;;;;;1.73;1.63;;;1.20;98.20;;;;;;6160587;23;20417;-77
2021/01/15 05:25:33;;;;;;;1.70;1.50;;;1.20;98.20;;;;;;6169831;23;20919;-78
2021/01/15 05:28:00;;;;;;;1.70;1.50;;;1.20;98.20;;;;;;6157064;23;20460;-77
2021/01/15 05:30:28;;;;;;;1.80;1.70;;;1.20;98.20;;;;;;6169111;23;20424;-78
2021/01/15 05:32:56;;;;;;;1.70;1.60;;;1.20;98.20;;;;;;6159822;23;20431;-77
2021/01/15 05:35:39;;;;;;;1.70;1.60;;;1.20;98.20;;;;;;6160318;23;20421;-77
2021/01/15 05:38:05;;;;;;;1.70;1.60;;;1.20;98.20;;;;;;6157286;23;20476;-77
2021/01/15 05:40:41;;;;;;;1.67;1.50;;;1.20;98.20;;;;;;6155553;23;20895;-78
2021/01/15 05:43:17;;;;;;;1.70;1.60;;;1.30;98.20;;;;;;6157444;23;20929;-76
2021/01/15 05:45:47;;;;;;;1.70;1.60;;;1.30;98.20;;;;;;6153113;23;20476;-76
2021/01/15 05:48:13;;;;;;;1.70;1.50;;;1.30;98.20;;;;;;6158738;23;20558;-76
2021/01/15 05:50:40;;;;;;;1.87;1.77;;;1.30;98.20;;;;;;6162846;23;20741;-76
2021/01/15 05:53:07;;;;;;;1.70;1.60;;;1.30;98.20;;;;;;6160588;23;20442;-76
2021/01/15 05:55:34;;;;;;;1.67;1.50;;;1.30;98.20;;;;;;6160154;23;20425;-76
2021/01/15 05:58:10;;;;;;;1.70;1.60;;;1.30;98.20;;;;;;6159213;23;20511;-77
2021/01/15 06:00:40;;;;;;;1.70;1.50;;;1.30;98.20;;;;;;6157870;23;20498;-77
2021/01/15 06:03:08;;;;;;;1.67;1.50;;;1.30;98.20;;;;;;6159046;23;20490;-76
2021/01/15 06:05:36;;;;;;;2.73;2.53;;;1.30;98.20;;;;;;6158368;23;20420;-77
2021/01/15 06:08:03;;;;;;;1.67;1.50;;;1.30;98.20;;;;;;6161991;23;20969;-77
2021/01/15 06:10:46;;;;;;;1.70;1.50;;;1.30;98.20;;;;;;6158729;23;20559;-77
2021/01/15 06:13:37;;;;;;;1.80;1.70;;;1.30;98.20;;;;;;6160357;23;20406;-77
2021/01/15 06:16:05;;;;;;;1.70;1.50;;;1.30;98.20;;;;;;6157165;23;20421;-76
2021/01/15 06:18:32;;;;;;;1.67;1.50;;;1.30;98.20;;;;;;6156696;23;20459;-78
2021/01/15 06:21:09;;;;;;;1.67;1.50;;;1.30;98.20;;;;;;6156282;23;20505;-78
2021/01/15 06:23:46;;;;;;;1.70;1.60;;;1.30;98.20;;;;;;6156531;23;20804;-79
2021/01/15 06:26:16;;;;;;;1.67;1.40;;;1.30;98.20;;;;;;6157071;23;20500;-77
2021/01/15 06:29:01;;;;;;;1.63;1.50;;;1.30;98.20;;;;;;6155427;23;21003;-78
2021/01/15 06:31:27;;;;;;;1.73;1.63;;;1.30;98.20;;;;;;6155537;23;20491;-77
2021/01/15 06:34:01;;;;;;;1.60;1.50;;;1.30;98.20;;;;;;6156078;23;20796;-77
2021/01/15 06:36:48;;;;;;;1.67;1.50;;;1.30;98.20;;;;;;6156951;23;20410;-77
2021/01/15 06:39:16;;;;;;;1.70;1.50;;;1.30;98.20;;;;;;6167303;23;20613;-77
2021/01/15 06:41:43;;;;;;;1.80;1.70;;;1.30;98.20;;;;;;6153886;23;20453;-78
2021/01/15 06:44:12;;;;;;;1.80;1.70;;;1.30;98.20;;;;;;6154883;23;20498;-77
2021/01/15 06:46:44;;;;;;;1.70;1.50;;;1.30;98.20;;;;;;6158477;23;20421;-77
2021/01/15 06:49:18;;;;;;;1.87;1.77;;;1.30;98.20;;;;;;6154302;23;20433;-78
2021/01/15 06:51:56;;;;;;;1.70;1.53;;;1.40;98.20;;;;;;6157536;23;20412;-77
2021/01/15 06:54:27;;;;;;;1.63;1.50;;;1.30;98.20;;;;;;6156657;23;20436;-76
2021/01/15 06:57:11;;;;;;;1.67;1.50;;;1.30;98.20;;;;;;6163764;23;20425;-78
2021/01/15 06:59:39;;;;;;;1.70;1.60;;;1.30;98.20;;;;;;6166421;23;20705;-77
2021/01/15 07:02:13;;;;;;;1.67;1.53;;;1.30;98.20;;;;;;6154847;23;20934;-77
2021/01/15 07:05:00;;;;;;;1.70;1.60;;;1.30;98.20;;;;;;6166765;23;20413;-78
2021/01/15 07:07:29;;;;;;;1.80;1.70;;;1.30;98.20;;;;;;6157645;23;20417;-77
2021/01/15 07:09:56;;;;;;;1.63;1.40;;;1.30;98.20;;;;;;6157045;23;20453;-76
2021/01/15 07:12:23;;;;;;;1.67;1.50;;;1.30;98.20;;;;;;6157975;23;20425;-77
2021/01/15 07:14:56;;;;;;;1.70;1.60;;;1.30;98.20;;;;;;6158346;23;20422;-78
2021/01/15 07:17:31;;;;;;;1.63;1.40;;;1.30;98.20;;;;;;6170971;23;20529;-76
2021/01/15 07:20:08;;;;;;;1.70;1.50;;;1.30;98.20;;;;;;6159318;23;20445;-76
2021/01/15 07:22:43;;;;;;;1.63;1.50;;;1.30;98.20;;;;;;6166523;23;20425;-79
2021/01/15 07:25:12;;;;;;;1.70;1.50;;;1.30;98.20;;;;;;6158776;23;20401;-77
2021/01/15 07:27:40;;;;;;;1.70;1.50;;;1.30;98.20;;;;;;6158778;23;20479;-77
2021/01/15 07:30:12;;;;;;;2.13;1.93;;;1.30;98.20;;;;;;6156579;23;20783;-77
2021/01/15 07:32:40;;;;;;;1.80;1.70;;;1.30;98.20;;;;;;6161176;23;21120;-77
2021/01/15 07:35:14;;;;;;;1.67;1.50;;;1.30;98.20;;;;;;6167146;23;20572;-76
2021/01/15 07:37:40;;;;;;;1.70;1.60;;;1.30;98.20;;;;;;6157159;23;20442;-77
2021/01/15 07:40:14;;;;;;;1.70;1.50;;;1.30;98.20;;;;;;6158298;23;20453;-78
2021/01/15 07:42:48;;;;;;;1.73;1.60;;;1.40;98.20;;;;;;6159020;23;20484;-77
2021/01/15 07:45:51;;;;;;;1.70;1.60;;;1.30;98.20;;;;;;6157598;23;20409;-77
2021/01/15 07:48:22;;;;;;;1.63;1.50;;;1.30;98.20;;;;;;6166232;23;20474;-77
2021/01/15 07:50:50;;;;;;;1.70;1.50;;;1.30;98.20;;;;;;6157057;23;20772;-78
2021/01/15 07:53:18;;;;;;;1.77;1.67;;;1.30;98.20;;;;;;6156785;23;20507;-78
2021/01/15 07:55:46;;;;;;;1.67;1.50;;;1.30;98.20;;;;;;6154860;23;20421;-77
2021/01/15 07:58:14;;;;;;;1.80;1.70;;;1.30;98.20;;;;;;6162166;23;20449;-76
2021/01/15 08:00:42;;;;;;;1.80;1.70;;;1.30;98.20;;;;;;6163187;23;20678;-76
2021/01/15 08:03:09;;;;;;;1.67;1.50;;;1.40;98.20;;;;;;6160237;23;20421;-74
2021/01/15 08:05:36;;;;;;;1.70;1.60;;;1.40;98.20;;;;;;6163806;23;20839;-77
2021/01/15 08:08:14;;;;;;;1.70;1.60;;;1.40;98.20;;;;;;6162408;23;20428;-77
2021/01/15 08:10:45;;;;;;;1.67;1.40;;;1.40;98.20;;;;;;6164233;23;20421;-75
2021/01/15 08:13:23;;;;;;;1.67;1.57;;;1.40;98.20;;;;;;6164292;23;20402;-75
2021/01/15 08:15:50;;;;;;;1.70;1.50;;;1.40;98.20;;;;;;6163856;23;20406;-76
2021/01/15 08:18:17;;;;;;;1.67;1.50;;;1.40;98.20;;;;;;6162408;23;20456;-76
2021/01/15 08:20:52;;;;;;;1.80;1.70;;;1.40;98.20;;;;;;6162526;23;20422;-75
2021/01/15 08:23:23;;;;;;;1.67;1.50;;;1.40;98.20;;;;;;6164851;23;20412;-75
2021/01/15 08:25:52;;;;;;;1.63;1.50;;;1.50;98.20;;;;;;6163762;23;20875;-76
2021/01/15 08:28:19;;;;;;;1.80;1.70;;;1.50;98.20;;;;;;6168455;23;20446;-76
2021/01/15 08:31:03;;;;;;;1.70;1.57;;;1.50;98.20;;;;;;6168228;23;20432;-75
2021/01/15 08:33:30;;;;;;;1.70;1.60;;;1.60;98.20;;;;;;6168093;23;20428;-74
2021/01/15 08:35:59;;;;;;;1.70;1.50;;;1.60;98.20;;;;;;6168886;23;20461;-75
2021/01/15 08:38:30;;;;;;;1.63;1.47;;;1.60;98.20;;;;;;6168506;23;20838;-75
2021/01/15 08:40:57;;;;;;;1.60;1.50;;;1.60;98.20;;;;;;6168727;23;20467;-76
2021/01/15 08:43:25;;;;;;;1.70;1.60;;;1.60;98.20;;;;;;6168829;23;20436;-75
2021/01/15 08:45:52;;;;;;;1.70;1.60;;;1.60;98.20;;;;;;6168500;23;20417;-74
2021/01/15 08:48:20;;;;;;;1.70;1.53;;;1.60;98.20;;;;;;6179490;23;20436;-76
2021/01/15 08:50:47;;;;;;;1.67;1.50;;;1.60;98.20;;;;;;6168968;23;20489;-76
2021/01/15 08:53:18;;;;;;;1.70;1.60;;;1.60;98.20;;;;;;6169909;23;20413;-79
2021/01/15 08:55:47;;;;;;;1.80;1.70;;;1.60;98.20;;;;;;6166992;23;20512;-75
2021/01/15 08:58:13;;;;;;;1.70;1.50;;;1.60;98.20;;;;;;6166438;23;20452;-76
2021/01/15 09:00:40;;;;;;;1.60;1.40;;;1.60;98.20;;;;;;6164577;23;20441;-75
2021/01/15 09:03:10;;;;;;;1.70;1.57;;;1.60;98.20;;;;;;6167151;23;20488;-75
2021/01/15 09:05:39;;;;;;;1.70;1.50;;;1.60;98.20;;;;;;6167399;23;20671;-75
2021/01/15 09:08:06;;;;;;;1.67;1.50;;;1.60;98.20;;;;;;6166313;23;20448;-75
2021/01/15 09:10:34;;;;;;;1.80;1.70;;;1.70;98.20;;;;;;6167043;23;20425;-76
2021/01/15 09:13:04;;;;;;;1.70;1.50;;;1.70;98.20;;;;;;6167030;23;20961;-76
2021/01/15 09:15:31;;;;;;;7.20;5.77;;;1.80;98.20;;;;;;6166691;23;20771;-74
2021/01/15 09:17:59;;;;;;;5.27;3.93;;;1.80;98.20;;;;;;6167800;23;20445;-74
2021/01/15 09:20:26;;;;;;;1.90;1.80;;;1.90;98.20;;;;;;6166805;23;20422;-75
2021/01/15 09:22:53;;;;;;;1.70;1.50;;;1.90;98.20;;;;;;6166992;23;20762;-75
2021/01/15 09:25:20;;;;;;;1.70;1.40;;;1.90;98.20;;;;;;6167009;23;20426;-75
2021/01/15 09:27:48;;;;;;;1.67;1.50;;;2.00;98.20;;;;;;6167497;23;20418;-74
2021/01/15 09:30:15;;;;;;;1.70;1.60;;;2.00;98.20;;;;;;6167599;23;20421;-76
2021/01/15 09:32:44;;;;;;;1.70;1.53;;;1.90;98.20;;;;;;6163923;23;20425;-75
2021/01/15 09:35:12;;;;;;;1.63;1.50;;;2.00;98.20;;;;;;6167224;23;20401;-77
2021/01/15 09:37:39;;;;;;;1.87;1.77;;;2.00;98.20;;;;;;6168841;23;20472;-76
2021/01/15 09:40:07;;;;;;;1.70;1.53;;;2.00;98.20;;;;;;6168441;23;20446;-74
2021/01/15 09:42:34;;;;;;;1.70;1.60;;;2.00;98.20;;;;;;6170573;23;20444;-74
2021/01/15 09:45:01;;;;;;;1.70;1.60;;;2.10;98.20;;;;;;6179129;23;20432;-78
2021/01/15 09:47:30;;;;;;;1.60;1.40;;;2.00;98.20;;;;;;6169145;23;20417;-77
2021/01/15 09:49:57;;;;;;;1.80;1.70;;;2.00;98.20;;;;;;6167789;23;20461;-76
2021/01/15 09:52:23;;;;;;;2.90;2.70;;;2.10;98.20;;;;;;6169619;23;20421;-78
2021/01/15 09:54:50;;;;;;;2.90;2.70;;;2.10;98.20;;;;;;6180687;23;20480;-74
2021/01/15 09:57:16;;;;;;;1.63;1.40;;;2.10;98.20;;;;;;6169451;23;20421;-73
2021/01/15 09:59:43;;;;;;;1.70;1.50;;;2.10;98.20;;;;;;6170735;23;20445;-74
2021/01/15 10:02:10;;;;;;;1.70;1.50;;;2.10;98.20;;;;;;6170937;23;20425;-77
2021/01/15 10:04:36;;;;;;;1.70;1.60;;;2.20;98.20;;;;;;6178686;23;20417;-73
2021/01/15 10:07:03;;;;;;;1.67;1.40;;;2.20;98.20;;;;;;6170448;23;20421;-76
2021/01/15 10:09:29;;;;;;;1.70;1.50;;;2.20;98.20;;;;;;6170037;23;20441;-75
2021/01/15 10:11:56;;;;;;;1.70;1.60;;;2.20;98.20;;;;;;6169900;23;20894;-73
2021/01/15 10:14:24;;;;;;;2.37;2.17;;;2.20;98.20;;;;;;6169087;23;20563;-74
2021/01/15 10:16:50;;;;;;;1.60;1.40;;;2.30;98.20;;;;;;6172343;23;20422;-74
2021/01/15 10:19:18;;;;;;;2.53;2.33;;;2.30;98.20;;;;;;6170794;23;20453;-76
2021/01/15 10:21:45;;;;;;;1.60;1.40;;;2.30;98.20;;;;;;6170904;23;20425;-75
2021/01/15 10:24:13;;;;;;;1.70;1.60;;;2.30;98.20;;;;;;6171532;23;20428;-75
2021/01/15 10:26:40;;;;;;;1.63;1.50;;;2.30;98.20;;;;;;6180787;23;20481;-75
2021/01/15 10:29:09;;;;;;;1.70;1.47;;;2.30;98.20;;;;;;6170112;23;20433;-74
2021/01/15 10:31:41;;;;;;;1.63;1.40;;;2.30;98.20;;;;;;6170099;23;20449;-75
2021/01/15 10:34:07;;;;;;;1.63;1.40;;;2.40;98.20;;;;;;6171460;23;20398;-74
2021/01/15 10:36:35;;;;;;;1.67;1.50;;;2.40;98.20;;;;;;6171581;23;20540;-75
2021/01/15 10:39:01;;;;;;;1.70;1.57;;;2.40;98.20;;;;;;6172128;23;20452;-76
2021/01/15 10:41:33;;;;;;;1.67;1.43;;;2.40;98.20;;;;;;6178184;23;20513;-73
2021/01/15 10:44:01;;;;;;;1.73;1.63;;;2.50;98.20;;;;;;6166537;23;20421;-74
2021/01/15 10:46:29;;;;;;;1.67;1.40;;;2.50;98.20;;;;;;6165505;23;20417;-74
2021/01/15 10:48:55;;;;;;;1.70;1.50;;;2.40;98.20;;;;;;6168127;23;20433;-75
2021/01/15 10:51:22;;;;;;;1.80;1.70;;;2.50;98.20;;;;;;6168208;23;20449;-74
2021/01/15 10:53:49;;;;;;;1.70;1.57;;;2.60;98.20;;;;;;6168623;23;20671;-75
2021/01/15 10:56:16;;;;;;;1.60;1.40;;;2.60;98.20;;;;;;6168588;23;20519;-73
2021/01/15 10:58:42;;;;;;;1.60;1.30;;;2.70;98.20;;;;;;6167948;23;20461;-75
2021/01/15 11:01:09;;;;;;;1.70;1.40;;;2.80;98.20;;;;;;6166653;23;20421;-74
2021/01/15 11:03:36;;;;;;;1.70;1.50;;;2.80;98.20;;;;;;6164847;23;20425;-75
2021/01/15 11:06:02;;;;;;;1.90;1.70;;;2.90;98.20;;;;;;6167983;23;20421;-74
2021/01/15 11:08:31;;;;;;;1.63;1.40;;;3.00;98.20;;;;;;6168136;23;20448;-74
2021/01/15 11:11:03;;;;;;;1.60;1.40;;;3.00;98.20;;;;;;6168207;23;20429;-73
2021/01/15 11:13:32;;;;;;;1.60;1.47;;;3.10;98.20;;;;;;6178250;23;20409;-73
2021/01/15 11:15:58;;;;;;;1.70;1.57;;;3.10;98.20;;;;;;6169323;23;20429;-73
2021/01/15 11:18:25;;;;;;;1.73;1.63;;;3.20;98.20;;;;;;6150786;23;20449;-73
2021/01/15 11:20:51;;;;;;;1.60;1.40;;;3.30;98.20;;;;;;6165882;23;20445;-72
2021/01/15 11:23:18;;;;;;;1.70;1.50;;;3.40;98.20;;;;;;6177855;23;20420;-72
2021/01/15 11:25:45;;;;;;;1.60;1.40;;;3.40;98.20;;;;;;6167235;23;20594;-74
2021/01/15 11:28:12;;;;;;;1.97;1.80;;;3.50;98.20;;;;;;6166391;23;20437;-74
2021/01/15 11:30:38;;;;;;;1.60;1.30;;;3.50;98.20;;;;;;6168424;23;20443;-73
2021/01/15 11:33:05;;;;;;;1.60;1.30;;;3.50;98.20;;;;;;6167794;23;20425;-73
2021/01/15 11:35:31;;;;;;;1.63;1.40;;;3.60;98.20;;;;;;6168207;23;20576;-73
2021/01/15 11:37:58;;;;;;;1.70;1.57;;;3.70;98.20;;;;;;6168641;23;20448;-74
2021/01/15 11:40:25;;;;;;;1.63;1.40;;;3.70;98.20;;;;;;6166961;23;20425;-73
2021/01/15 11:42:56;;;;;;;1.70;1.50;;;3.70;98.20;;;;;;6167138;23;20428;-75
2021/01/15 11:45:24;;;;;;;1.70;1.50;;;3.80;98.20;;;;;;6169121;23;20453;-74
2021/01/15 11:47:52;;;;;;;1.63;1.40;;;3.90;98.20;;;;;;6168256;23;20417;-74
2021/01/15 11:50:19;;;;;;;1.60;1.40;;;3.90;98.20;;;;;;6167424;23;20433;-73
2021/01/15 11:52:46;;;;;;;1.60;1.40;;;4.00;98.20;;;;;;6168012;23;20433;-73
2021/01/15 11:55:13;;;;;;;1.70;1.40;;;4.00;98.20;;;;;;6166882;23;20421;-74
2021/01/15 11:57:40;;;;;;;1.63;1.30;;;4.00;98.20;;;;;;6165617;23;20685;-73
2021/01/15 12:00:08;;;;;;;2.83;2.63;;;4.00;98.20;;;;;;6161519;23;20441;-73
2021/01/15 12:02:35;;;;;;;1.60;1.30;;;4.00;98.20;;;;;;6174586;23;20432;-73
2021/01/15 12:05:01;;;;;;;1.63;1.40;;;4.00;98.20;;;;;;6165240;23;20431;-75
2021/01/15 12:07:31;;;;;;;1.60;1.30;;;4.10;98.20;;;;;;6164842;23;20468;-74
2021/01/15 12:09:57;;;;;;;1.60;1.30;;;4.10;98.20;;;;;;6164653;23;20480;-74
2021/01/15 12:12:24;;;;;;;1.60;1.30;;;4.10;98.20;;;;;;6165009;23;20410;-73
2021/01/15 12:14:50;;;;;;;1.70;1.50;;;4.10;98.20;;;;;;6164830;23;20466;-73
2021/01/15 12:17:17;;;;;;;1.70;1.40;;;4.10;98.20;;;;;;6165037;23;20487;-74
2021/01/15 12:19:44;;;;;;;1.70;1.60;;;4.20;98.20;;;;;;6162700;23;20453;-74
2021/01/15 12:22:12;;;;;;;1.60;1.30;;;4.20;98.10;;;;;;6164612;23;20440;-72
2021/01/15 12:24:39;;;;;;;1.70;1.33;;;4.20;97.80;;;;;;6165021;23;20432;-73
2021/01/15 12:27:06;;;;;;;1.97;1.77;;;4.20;96.70;;;;;;6164404;23;20432;-73
2021/01/15 12:29:33;;;;;;;1.63;1.33;;;4.30;96.80;;;;;;6164091;23;20452;-73
2021/01/15 12:31:59;;;;;;;1.63;1.30;;;4.30;97.80;;;;;;6161233;23;20743;-72
2021/01/15 12:34:26;;;;;;;1.63;1.30;;;4.40;98.10;;;;;;6159473;23;20798;-73
2021/01/15 12:36:53;;;;;;;1.63;1.30;;;4.50;97.60;;;;;;6158208;23;20431;-74
2021/01/15 12:39:20;;;;;;;1.70;1.40;;;4.50;96.20;;;;;;6158940;23;20453;-73
2021/01/15 12:41:48;;;;;;;1.70;1.50;;;4.50;95.40;;;;;;6159324;23;20437;-73
2021/01/15 12:44:14;;;;;;;1.67;1.40;;;4.50;96.20;;;;;;6159525;23;20490;-72
2021/01/15 12:46:41;;;;;;;1.67;1.30;;;4.50;95.90;;;;;;6158491;23;20436;-74
2021/01/15 12:49:07;;;;;;;1.70;1.50;;;4.40;95.50;;;;;;6160094;23;20545;-74
2021/01/15 12:51:34;;;;;;;1.70;1.60;;;4.50;96.20;;;;;;6160465;23;20420;-74
2021/01/15 12:54:02;;;;;;;1.60;1.30;;;4.50;95.90;;;;;;6158794;23;20421;-76
2021/01/15 12:56:35;;;;;;;1.70;1.43;;;4.50;96.10;;;;;;6159219;23;20429;-75
2021/01/15 12:59:02;;;;;;;1.63;1.30;;;4.50;95.00;;;;;;6160966;23;20465;-75
2021/01/15 13:01:36;;;;;;;1.70;1.50;;;4.40;94.10;;;;;;6161845;23;20428;-75
2021/01/15 13:04:03;;;;;;;1.67;1.30;;;4.30;91.60;;;;;;6163158;23;20432;-74
2021/01/15 13:06:34;;;;;;;1.60;1.30;;;4.20;91.70;;;;;;6161846;23;20425;-75